sensor_id;sensor_type;location;lat;lon;timestamp;pressure;altitude;pressure_sealevel;temperature;humidity
9187;BME280;7273;48.902;9.410;2023-05-02T00:00:30;98104.06;;;10.44;70.46
9187;BME280;7273;48.902;9.410;2023-05-02T00:02:56;98096.00;;;10.34;70.42
9187;BME280;7273;48.902;9.410;2023-05-02T00:05:22;98104.34;;;10.38;70.55
9187;BME280;7273;48.902;9.410;2023-05-02T00:07:48;98103.56;;;10.37;70.48
9187;BME280;7273;48.902;9.410;2023-05-02T00:10:14;98103.84;;;10.36;70.58
9187;BME280;7273;48.902;9.410;2023-05-02T00:12:39;98109.53;;;10.34;70.27
9187;BME280;7273;48.902;9.410;2023-05-02T00:15:05;98108.72;;;10.24;70.64
9187;BME280;7273;48.902;9.410;2023-05-02T00:17:31;98106.00;;;10.29;70.57
9187;BME280;7273;48.902;9.410;2023-05-02T00:19:58;98101.16;;;10.26;70.70
9187;BME280;7273;48.902;9.410;2023-05-02T00:22:23;98104.13;;;10.24;70.55
9187;BME280;7273;48.902;9.410;2023-05-02T00:24:49;98099.81;;;10.18;70.59
9187;BME280;7273;48.902;9.410;2023-05-02T00:27:14;98104.41;;;10.23;70.48
9187;BME280;7273;48.902;9.410;2023-05-02T00:29:40;98094.94;;;10.15;70.82
9187;BME280;7273;48.902;9.410;2023-05-02T00:32:06;98098.47;;;10.11;70.76
9187;BME280;7273;48.902;9.410;2023-05-02T00:34:32;98097.13;;;9.98;71.37
9187;BME280;7273;48.902;9.410;2023-05-02T00:36:57;98095.22;;;9.89;71.65
9187;BME280;7273;48.902;9.410;2023-05-02T00:39:23;98094.69;;;9.87;71.84
9187;BME280;7273;48.902;9.410;2023-05-02T00:41:49;98091.72;;;9.88;71.60
9187;BME280;7273;48.902;9.410;2023-05-02T00:44:20;98087.66;;;9.86;71.82
9187;BME280;7273;48.902;9.410;2023-05-02T00:46:47;98090.63;;;9.84;71.48
9187;BME280;7273;48.902;9.410;2023-05-02T00:49:12;98093.59;;;9.88;71.21
9187;BME280;7273;48.902;9.410;2023-05-02T00:51:39;98096.31;;;9.88;71.44
9187;BME280;7273;48.902;9.410;2023-05-02T00:54:04;98094.97;;;9.80;71.09
9187;BME280;7273;48.902;9.410;2023-05-02T00:56:30;98099.28;;;9.81;71.12
9187;BME280;7273;48.902;9.410;2023-05-02T00:58:56;98104.69;;;9.86;71.04
9187;BME280;7273;48.902;9.410;2023-05-02T01:01:46;98099.28;;;9.81;71.05
9187;BME280;7273;48.902;9.410;2023-05-02T01:10:07;98109.25;;;9.76;71.05
9187;BME280;7273;48.902;9.410;2023-05-02T01:12:42;98104.41;;;9.73;71.17
9187;BME280;7273;48.902;9.410;2023-05-02T01:15:13;98112.22;;;9.69;71.25
9187;BME280;7273;48.902;9.410;2023-05-02T01:17:41;98111.16;;;9.65;70.96
9187;BME280;7273;48.902;9.410;2023-05-02T01:20:12;98112.50;;;9.63;71.16
9187;BME280;7273;48.902;9.410;2023-05-02T01:22:39;98120.34;;;9.54;71.17
9187;BME280;7273;48.902;9.410;2023-05-02T01:25:46;98112.25;;;9.59;71.32
9187;BME280;7273;48.902;9.410;2023-05-02T01:28:28;98119.53;;;9.59;71.43
9187;BME280;7273;48.902;9.410;2023-05-02T01:30:55;98121.69;;;9.57;71.58
9187;BME280;7273;48.902;9.410;2023-05-02T01:33:23;98117.38;;;9.56;71.03
9187;BME280;7273;48.902;9.410;2023-05-02T01:35:50;98113.84;;;9.50;70.97
9187;BME280;7273;48.902;9.410;2023-05-02T01:38:18;98119.25;;;9.50;71.29
9187;BME280;7273;48.902;9.410;2023-05-02T01:40:44;98121.94;;;9.50;71.37
9187;BME280;7273;48.902;9.410;2023-05-02T01:43:12;98122.22;;;9.48;71.50
9187;BME280;7273;48.902;9.410;2023-05-02T01:45:40;98129.47;;;9.48;71.54
9187;BME280;7273;48.902;9.410;2023-05-02T01:48:08;98129.22;;;9.49;72.09
9187;BME280;7273;48.902;9.410;2023-05-02T01:50:36;98131.41;;;9.47;71.65
9187;BME280;7273;48.902;9.410;2023-05-02T01:53:03;98133.00;;;9.48;74.34
9187;BME280;7273;48.902;9.410;2023-05-02T01:55:30;98127.06;;;9.57;72.63
9187;BME280;7273;48.902;9.410;2023-05-02T01:57:58;98126.25;;;9.56;72.21
9187;BME280;7273;48.902;9.410;2023-05-02T02:00:25;98130.03;;;9.55;71.70
9187;BME280;7273;48.902;9.410;2023-05-02T02:02:52;98131.38;;;9.52;71.32
9187;BME280;7273;48.902;9.410;2023-05-02T02:05:19;98134.63;;;9.49;71.68
9187;BME280;7273;48.902;9.410;2023-05-02T02:07:45;98131.41;;;9.47;72.00
9187;BME280;7273;48.902;9.410;2023-05-02T02:10:11;98136.22;;;9.40;71.53
9187;BME280;7273;48.902;9.410;2023-05-02T02:12:41;98139.47;;;9.42;71.84
9187;BME280;7273;48.902;9.410;2023-05-02T02:18:20;98132.44;;;9.36;72.55
9187;BME280;7273;48.902;9.410;2023-05-02T02:20:47;98144.84;;;9.32;72.10
9187;BME280;7273;48.902;9.410;2023-05-02T02:23:14;98143.47;;;9.30;71.66
9187;BME280;7273;48.902;9.410;2023-05-02T02:25:41;98155.63;;;9.27;71.54
9187;BME280;7273;48.902;9.410;2023-05-02T02:28:07;98151.06;;;9.28;71.89
9187;BME280;7273;48.902;9.410;2023-05-02T02:30:33;98156.69;;;9.21;71.54
9187;BME280;7273;48.902;9.410;2023-05-02T02:32:58;98161.53;;;9.14;71.86
9187;BME280;7273;48.902;9.410;2023-05-02T02:35:28;98165.28;;;9.13;71.50
9187;BME280;7273;48.902;9.410;2023-05-02T02:41:13;98167.69;;;9.00;72.17
9187;BME280;7273;48.902;9.410;2023-05-02T02:43:59;98167.91;;;8.93;72.24
9187;BME280;7273;48.902;9.410;2023-05-02T02:46:36;98179.78;;;8.97;71.97
9187;BME280;7273;48.902;9.410;2023-05-02T02:54:40;98190.81;;;8.91;71.84
9187;BME280;7273;48.902;9.410;2023-05-02T02:57:54;98190.53;;;8.87;72.55
9187;BME280;7273;48.902;9.410;2023-05-02T03:00:24;98201.06;;;8.84;71.89
9187;BME280;7273;48.902;9.410;2023-05-02T03:02:52;98201.28;;;8.82;72.03
9187;BME280;7273;48.902;9.410;2023-05-02T03:05:20;98198.59;;;8.82;72.12
9187;BME280;7273;48.902;9.410;2023-05-02T03:07:46;98199.44;;;8.88;72.04
9187;BME280;7273;48.902;9.410;2023-05-02T03:10:11;98202.41;;;8.86;72.15
9187;BME280;7273;48.902;9.410;2023-05-02T03:12:37;98207.53;;;8.88;72.13
9187;BME280;7273;48.902;9.410;2023-05-02T03:17:38;98208.06;;;8.85;72.13
9187;BME280;7273;48.902;9.410;2023-05-02T03:20:04;98215.91;;;8.91;72.08
9187;BME280;7273;48.902;9.410;2023-05-02T03:22:30;98207.78;;;8.86;72.35
9187;BME280;7273;48.902;9.410;2023-05-02T03:24:55;98217.47;;;8.82;71.97
9187;BME280;7273;48.902;9.410;2023-05-02T03:27:20;98220.72;;;8.84;71.95
9187;BME280;7273;48.902;9.410;2023-05-02T03:29:46;98223.72;;;8.88;72.34
9187;BME280;7273;48.902;9.410;2023-05-02T03:32:11;98223.16;;;8.86;72.16
9187;BME280;7273;48.902;9.410;2023-05-02T03:34:37;98234.75;;;8.86;72.18
9187;BME280;7273;48.902;9.410;2023-05-02T03:37:02;98231.28;;;8.91;71.96
9187;BME280;7273;48.902;9.410;2023-05-02T03:39:28;98231.25;;;8.86;72.15
9187;BME280;7273;48.902;9.410;2023-05-02T03:41:53;98234.25;;;8.94;72.60
9187;BME280;7273;48.902;9.410;2023-05-02T03:44:18;98232.69;;;8.98;72.63
9187;BME280;7273;48.902;9.410;2023-05-02T03:46:44;98231.84;;;8.98;72.24
9187;BME280;7273;48.902;9.410;2023-05-02T03:49:10;98242.41;;;9.04;72.46
9187;BME280;7273;48.902;9.410;2023-05-02T03:51:36;98242.44;;;9.09;72.26
9187;BME280;7273;48.902;9.410;2023-05-02T03:54:01;98251.88;;;9.12;72.60
9187;BME280;7273;48.902;9.410;2023-05-02T03:56:27;98248.38;;;9.11;72.48
9187;BME280;7273;48.902;9.410;2023-05-02T03:58:52;98247.88;;;9.19;72.19
9187;BME280;7273;48.902;9.410;2023-05-02T04:01:18;98261.13;;;9.21;72.70
9187;BME280;7273;48.902;9.410;2023-05-02T04:03:43;98261.13;;;9.21;72.41
9187;BME280;7273;48.902;9.410;2023-05-02T04:06:09;98257.91;;;9.29;72.43
9187;BME280;7273;48.902;9.410;2023-05-02T04:08:34;98264.13;;;9.29;72.40
9187;BME280;7273;48.902;9.410;2023-05-02T04:11:01;98264.16;;;9.34;72.02
9187;BME280;7273;48.902;9.410;2023-05-02T04:13:26;98259.28;;;9.36;72.10
9187;BME280;7273;48.902;9.410;2023-05-02T04:15:53;98263.66;;;9.42;72.18
9187;BME280;7273;48.902;9.410;2023-05-02T04:18:18;98258.50;;;9.46;72.28
9187;BME280;7273;48.902;9.410;2023-05-02T04:20:44;98268.78;;;9.49;72.08
9187;BME280;7273;48.902;9.410;2023-05-02T04:23:10;98267.19;;;9.53;72.08
9187;BME280;7273;48.902;9.410;2023-05-02T04:25:35;98272.03;;;9.56;71.61
9187;BME280;7273;48.902;9.410;2023-05-02T04:28:00;98275.03;;;9.60;71.84
9187;BME280;7273;48.902;9.410;2023-05-02T04:30:26;98273.69;;;9.57;71.69
9187;BME280;7273;48.902;9.410;2023-05-02T04:32:51;98279.63;;;9.59;71.71
9187;BME280;7273;48.902;9.410;2023-05-02T04:35:17;98290.16;;;9.61;72.03
9187;BME280;7273;48.902;9.410;2023-05-02T04:37:43;98288.56;;;9.65;72.01
9187;BME280;7273;48.902;9.410;2023-05-02T04:40:09;98281.81;;;9.67;71.89
9187;BME280;7273;48.902;9.410;2023-05-02T04:42:35;98282.09;;;9.66;72.16
9187;BME280;7273;48.902;9.410;2023-05-02T04:45:00;98288.31;;;9.71;72.53
9187;BME280;7273;48.902;9.410;2023-05-02T04:47:26;98289.69;;;9.74;72.25
9187;BME280;7273;48.902;9.410;2023-05-02T04:49:51;98292.38;;;9.74;72.09
9187;BME280;7273;48.902;9.410;2023-05-02T04:52:17;98284.78;;;9.71;72.19
9187;BME280;7273;48.902;9.410;2023-05-02T04:54:42;98289.38;;;9.70;72.57
9187;BME280;7273;48.902;9.410;2023-05-02T04:57:08;98292.09;;;9.70;72.51
9187;BME280;7273;48.902;9.410;2023-05-02T04:59:34;98292.09;;;9.70;72.41
9187;BME280;7273;48.902;9.410;2023-05-02T05:01:59;98296.41;;;9.71;72.69
9187;BME280;7273;48.902;9.410;2023-05-02T05:04:25;98302.38;;;9.78;72.67
9187;BME280;7273;48.902;9.410;2023-05-02T05:06:51;98299.13;;;9.76;72.98
9187;BME280;7273;48.902;9.410;2023-05-02T05:09:16;98302.09;;;9.80;72.88
9187;BME280;7273;48.902;9.410;2023-05-02T05:11:42;98300.47;;;9.84;73.10
9187;BME280;7273;48.902;9.410;2023-05-02T05:14:08;98311.31;;;9.89;72.40
9187;BME280;7273;48.902;9.410;2023-05-02T05:16:33;98309.44;;;9.94;72.36
9187;BME280;7273;48.902;9.410;2023-05-02T05:18:59;98318.66;;;9.98;72.26
9187;BME280;7273;48.902;9.410;2023-05-02T05:21:25;98317.84;;;10.03;72.43
9187;BME280;7273;48.902;9.410;2023-05-02T05:23:51;98330.25;;;10.04;72.38
9187;BME280;7273;48.902;9.410;2023-05-02T05:26:16;98337.59;;;10.08;72.44
9187;BME280;7273;48.902;9.410;2023-05-02T05:28:42;98341.94;;;10.09;72.70
9187;BME280;7273;48.902;9.410;2023-05-02T05:31:09;98356.81;;;10.17;72.17
9187;BME280;7273;48.902;9.410;2023-05-02T05:33:36;98351.97;;;10.19;72.37
9187;BME280;7273;48.902;9.410;2023-05-02T05:36:10;98366.31;;;10.24;72.47
9187;BME280;7273;48.902;9.410;2023-05-02T05:38:36;98367.09;;;10.25;72.72
9187;BME280;7273;48.902;9.410;2023-05-02T05:41:02;98369.28;;;10.33;72.47
9187;BME280;7273;48.902;9.410;2023-05-02T05:43:29;98373.63;;;10.39;72.38
9187;BME280;7273;48.902;9.410;2023-05-02T05:45:54;98371.47;;;10.46;72.02
9187;BME280;7273;48.902;9.410;2023-05-02T05:48:21;98377.44;;;10.53;72.03
9187;BME280;7273;48.902;9.410;2023-05-02T05:50:46;98381.25;;;10.52;72.42
9187;BME280;7273;48.902;9.410;2023-05-02T05:53:12;98385.56;;;10.58;72.03
9187;BME280;7273;48.902;9.410;2023-05-02T05:55:38;98384.47;;;10.59;72.37
9187;BME280;7273;48.902;9.410;2023-05-02T05:58:04;98379.06;;;10.64;72.40
9187;BME280;7273;48.902;9.410;2023-05-02T06:00:33;98383.69;;;10.63;72.44
9187;BME280;7273;48.902;9.410;2023-05-02T06:02:58;98389.63;;;10.70;72.67
9187;BME280;7273;48.902;9.410;2023-05-02T06:05:23;98390.72;;;10.74;72.11
9187;BME280;7273;48.902;9.410;2023-05-02T06:07:49;98387.75;;;10.76;72.29
9187;BME280;7273;48.902;9.410;2023-05-02T06:10:14;98386.94;;;10.75;72.29
9187;BME280;7273;48.902;9.410;2023-05-02T06:12:40;98400.47;;;10.80;71.88
9187;BME280;7273;48.902;9.410;2023-05-02T06:15:05;98395.59;;;10.82;71.82
9187;BME280;7273;48.902;9.410;2023-05-02T06:17:31;98398.59;;;10.86;72.10
9187;BME280;7273;48.902;9.410;2023-05-02T06:19:56;98409.94;;;10.83;72.48
9187;BME280;7273;48.902;9.410;2023-05-02T06:22:22;98404.00;;;10.86;72.00
9187;BME280;7273;48.902;9.410;2023-05-02T06:24:47;98411.28;;;10.85;72.21
9187;BME280;7273;48.902;9.410;2023-05-02T06:27:12;98413.19;;;10.90;72.18
9187;BME280;7273;48.902;9.410;2023-05-02T06:29:38;98412.94;;;10.92;72.34
9187;BME280;7273;48.902;9.410;2023-05-02T06:32:03;98418.88;;;10.99;71.93
9187;BME280;7273;48.902;9.410;2023-05-02T06:34:32;98421.03;;;11.02;71.37
9187;BME280;7273;48.902;9.410;2023-05-02T06:36:58;98424.00;;;11.00;72.55
9187;BME280;7273;48.902;9.410;2023-05-02T06:39:23;98423.22;;;11.05;72.11
9187;BME280;7273;48.902;9.410;2023-05-02T06:41:49;98429.97;;;11.12;71.93
9187;BME280;7273;48.902;9.410;2023-05-02T06:44:14;98427.28;;;11.12;72.22
9187;BME280;7273;48.902;9.410;2023-05-02T06:46:40;98435.38;;;11.17;71.77
9187;BME280;7273;48.902;9.410;2023-05-02T06:49:06;98435.66;;;11.26;71.80
9187;BME280;7273;48.902;9.410;2023-05-02T06:51:31;98436.47;;;11.31;71.31
9187;BME280;7273;48.902;9.410;2023-05-02T06:53:57;98441.88;;;11.36;71.66
9187;BME280;7273;48.902;9.410;2023-05-02T06:56:23;98447.56;;;11.40;71.90
9187;BME280;7273;48.902;9.410;2023-05-02T06:58:50;98452.69;;;11.46;72.07
9187;BME280;7273;48.902;9.410;2023-05-02T07:01:15;98443.47;;;11.52;71.97
9187;BME280;7273;48.902;9.410;2023-05-02T07:03:41;98450.53;;;11.53;72.19
9187;BME280;7273;48.902;9.410;2023-05-02T07:06:06;98449.44;;;11.59;71.84
9187;BME280;7273;48.902;9.410;2023-05-02T07:08:31;98456.50;;;11.65;72.21
9187;BME280;7273;48.902;9.410;2023-05-02T07:10:57;98451.63;;;11.67;72.01
9187;BME280;7273;48.902;9.410;2023-05-02T07:13:22;98463.28;;;11.68;71.99
9187;BME280;7273;48.902;9.410;2023-05-02T07:15:48;98464.09;;;11.73;72.36
9187;BME280;7273;48.902;9.410;2023-05-02T07:18:13;98470.56;;;11.82;71.98
9187;BME280;7273;48.902;9.410;2023-05-02T07:20:38;98465.94;;;11.88;71.87
9187;BME280;7273;48.902;9.410;2023-05-02T07:23:06;98470.81;;;11.91;72.08
9187;BME280;7273;48.902;9.410;2023-05-02T07:25:31;98474.56;;;12.00;71.82
9187;BME280;7273;48.902;9.410;2023-05-02T07:27:57;98479.19;;;12.04;71.84
9187;BME280;7273;48.902;9.410;2023-05-02T07:30:22;98484.31;;;12.11;71.98
9187;BME280;7273;48.902;9.410;2023-05-02T07:32:48;98482.13;;;12.13;72.04
9187;BME280;7273;48.902;9.410;2023-05-02T07:35:13;98481.84;;;12.19;71.84
9187;BME280;7273;48.902;9.410;2023-05-02T07:37:39;98481.03;;;12.24;71.38
9187;BME280;7273;48.902;9.410;2023-05-02T07:40:05;98476.13;;;12.26;71.34
9187;BME280;7273;48.902;9.410;2023-05-02T07:42:32;98474.50;;;12.30;71.26
9187;BME280;7273;48.902;9.410;2023-05-02T07:44:58;98477.19;;;12.35;71.23
9187;BME280;7273;48.902;9.410;2023-05-02T07:47:24;98476.34;;;12.40;71.02
9187;BME280;7273;48.902;9.410;2023-05-02T07:49:51;98482.56;;;12.45;71.04
9187;BME280;7273;48.902;9.410;2023-05-02T07:52:18;98483.34;;;12.46;70.94
9187;BME280;7273;48.902;9.410;2023-05-02T07:54:43;98487.16;;;12.45;71.34
9187;BME280;7273;48.902;9.410;2023-05-02T07:57:11;98490.69;;;12.50;71.12
9187;BME280;7273;48.902;9.410;2023-05-02T07:59:37;98489.59;;;12.51;71.24
9187;BME280;7273;48.902;9.410;2023-05-02T08:02:02;98493.88;;;12.57;71.35
9187;BME280;7273;48.902;9.410;2023-05-02T08:04:28;98495.81;;;12.57;71.56
9187;BME280;7273;48.902;9.410;2023-05-02T08:06:54;98504.22;;;12.60;71.15
9187;BME280;7273;48.902;9.410;2023-05-02T08:09:19;98503.94;;;12.62;70.98
9187;BME280;7273;48.902;9.410;2023-05-02T08:11:45;98501.22;;;12.62;71.29
9187;BME280;7273;48.902;9.410;2023-05-02T08:14:11;98506.09;;;12.65;70.87
9187;BME280;7273;48.902;9.410;2023-05-02T08:16:36;98506.88;;;12.65;70.89
9187;BME280;7273;48.902;9.410;2023-05-02T08:19:02;98511.50;;;12.65;71.53
9187;BME280;7273;48.902;9.410;2023-05-02T08:21:27;98512.28;;;12.70;71.09
9187;BME280;7273;48.902;9.410;2023-05-02T08:23:56;98515.00;;;12.65;71.62
9187;BME280;7273;48.902;9.410;2023-05-02T08:26:22;98517.13;;;12.78;71.14
9187;BME280;7273;48.902;9.410;2023-05-02T08:28:49;98522.00;;;12.86;70.98
9187;BME280;7273;48.902;9.410;2023-05-02T08:31:15;98518.72;;;12.84;71.22
9187;BME280;7273;48.902;9.410;2023-05-02T08:33:40;98520.91;;;12.82;71.47
9187;BME280;7273;48.902;9.410;2023-05-02T08:36:10;98518.13;;;12.97;71.20
9187;BME280;7273;48.902;9.410;2023-05-02T08:38:36;98530.59;;;13.03;71.22
9187;BME280;7273;48.902;9.410;2023-05-02T08:41:01;98534.97;;;12.94;71.42
9187;BME280;7273;48.902;9.410;2023-05-02T08:43:28;98530.41;;;12.85;71.91
9187;BME280;7273;48.902;9.410;2023-05-02T08:45:57;98536.31;;;13.02;71.22
9187;BME280;7273;48.902;9.410;2023-05-02T08:48:24;98535.19;;;13.08;71.49
9187;BME280;7273;48.902;9.410;2023-05-02T08:50:51;98544.13;;;13.13;71.17
9187;BME280;7273;48.902;9.410;2023-05-02T08:53:18;98529.72;;;13.13;71.37
9187;BME280;7273;48.902;9.410;2023-05-02T08:55:45;98535.34;;;13.26;71.34
9187;BME280;7273;48.902;9.410;2023-05-02T08:58:12;98534.72;;;13.34;70.85
9187;BME280;7273;48.902;9.410;2023-05-02T09:00:38;98534.13;;;13.42;70.72
9187;BME280;7273;48.902;9.410;2023-05-02T09:05:34;98543.53;;;13.60;70.72
9187;BME280;7273;48.902;9.410;2023-05-02T09:08:00;98546.75;;;13.62;70.74
9187;BME280;7273;48.902;9.410;2023-05-02T09:10:27;98540.19;;;13.68;70.92
9187;BME280;7273;48.902;9.410;2023-05-02T09:12:53;98547.03;;;13.61;70.64
9187;BME280;7273;48.902;9.410;2023-05-02T09:15:18;98546.63;;;13.77;70.59
9187;BME280;7273;48.902;9.410;2023-05-02T09:17:46;98544.94;;;13.86;70.70
9187;BME280;7273;48.902;9.410;2023-05-02T09:20:13;98546.16;;;13.99;70.43
9187;BME280;7273;48.902;9.410;2023-05-02T09:22:47;98542.78;;;14.12;70.39
9187;BME280;7273;48.902;9.410;2023-05-02T09:25:13;98550.16;;;14.06;70.75
9187;BME280;7273;48.902;9.410;2023-05-02T09:27:52;98545.75;;;14.15;70.59
9187;BME280;7273;48.902;9.410;2023-05-02T09:30:20;98548.03;;;14.32;69.97
9187;BME280;7273;48.902;9.410;2023-05-02T09:32:47;98551.41;;;14.47;69.76
9187;BME280;7273;48.902;9.410;2023-05-02T09:35:15;98545.38;;;14.50;69.90
9187;BME280;7273;48.902;9.410;2023-05-02T09:37:54;98544.28;;;14.51;69.74
9187;BME280;7273;48.902;9.410;2023-05-02T09:40:20;98540.44;;;14.76;69.63
9187;BME280;7273;48.902;9.410;2023-05-02T09:42:46;98538.38;;;14.87;69.43
9187;BME280;7273;48.902;9.410;2023-05-02T09:45:23;98536.72;;;15.09;69.33
9187;BME280;7273;48.902;9.410;2023-05-02T09:47:49;98541.59;;;15.12;69.38
9187;BME280;7273;48.902;9.410;2023-05-02T09:50:34;98535.50;;;15.39;68.82
9187;BME280;7273;48.902;9.410;2023-05-02T09:53:01;98539.41;;;15.51;68.79
9187;BME280;7273;48.902;9.410;2023-05-02T09:55:27;98538.13;;;15.62;68.71
9187;BME280;7273;48.902;9.410;2023-05-02T09:57:52;98539.81;;;15.77;68.32
9187;BME280;7273;48.902;9.410;2023-05-02T10:00:17;98543.81;;;15.66;68.14
9187;BME280;7273;48.902;9.410;2023-05-02T10:02:45;98537.06;;;15.77;68.12
9187;BME280;7273;48.902;9.410;2023-05-02T10:05:14;98540.63;;;15.91;67.95
9187;BME280;7273;48.902;9.410;2023-05-02T10:07:42;98545.13;;;16.14;68.03
9187;BME280;7273;48.902;9.410;2023-05-02T10:10:13;98538.50;;;16.34;67.59
9187;BME280;7273;48.902;9.410;2023-05-02T10:12:41;98543.97;;;16.20;67.26
9187;BME280;7273;48.902;9.410;2023-05-02T10:15:08;98543.31;;;16.55;67.39
9187;BME280;7273;48.902;9.410;2023-05-02T10:17:38;98542.81;;;16.67;67.41
9187;BME280;7273;48.902;9.410;2023-05-02T10:20:06;98550.47;;;16.78;67.12
9187;BME280;7273;48.902;9.410;2023-05-02T10:22:33;98552.00;;;16.84;67.22
9187;BME280;7273;48.902;9.410;2023-05-02T10:24:59;98559.50;;;16.92;67.23
9187;BME280;7273;48.902;9.410;2023-05-02T10:27:26;98546.50;;;16.98;67.06
9187;BME280;7273;48.902;9.410;2023-05-02T10:29:54;98544.50;;;17.03;66.71
9187;BME280;7273;48.902;9.410;2023-05-02T10:32:23;98551.00;;;16.94;66.65
9187;BME280;7273;48.902;9.410;2023-05-02T10:34:53;98547.16;;;16.68;66.01
9187;BME280;7273;48.902;9.410;2023-05-02T10:37:21;98547.66;;;16.97;66.37
9187;BME280;7273;48.902;9.410;2023-05-02T10:39:48;98539.84;;;16.90;66.60
9187;BME280;7273;48.902;9.410;2023-05-02T10:42:14;98531.69;;;17.26;66.84
9187;BME280;7273;48.902;9.410;2023-05-02T10:44:41;98531.91;;;17.52;66.43
9187;BME280;7273;48.902;9.410;2023-05-02T10:47:20;98531.56;;;17.67;65.88
9187;BME280;7273;48.902;9.410;2023-05-02T10:49:54;98525.66;;;17.95;65.95
9187;BME280;7273;48.902;9.410;2023-05-02T10:52:33;98531.19;;;18.34;65.16
9187;BME280;7273;48.902;9.410;2023-05-02T11:00:27;98529.56;;;18.64;64.67
9187;BME280;7273;48.902;9.410;2023-05-02T11:02:56;98528.44;;;18.65;64.90
9187;BME280;7273;48.902;9.410;2023-05-02T11:05:22;98520.91;;;18.88;64.39
9187;BME280;7273;48.902;9.410;2023-05-02T11:07:48;98509.72;;;19.32;63.31
9187;BME280;7273;48.902;9.410;2023-05-02T11:12:46;98512.09;;;20.01;62.95
9187;BME280;7273;48.902;9.410;2023-05-02T11:18:03;98522.94;;;21.19;62.16
9187;BME280;7273;48.902;9.410;2023-05-02T11:20:32;98513.81;;;21.48;62.53
9187;BME280;7273;48.902;9.410;2023-05-02T11:23:18;98515.41;;;21.28;53.31
9187;BME280;7273;48.902;9.410;2023-05-02T11:25:48;98518.84;;;20.96;63.36
9187;BME280;7273;48.902;9.410;2023-05-02T11:31:05;98515.75;;;20.69;64.09
9187;BME280;7273;48.902;9.410;2023-05-02T11:33:31;98518.91;;;21.38;63.88
9187;BME280;7273;48.902;9.410;2023-05-02T11:35:57;98510.13;;;21.44;64.12
9187;BME280;7273;48.902;9.410;2023-05-02T11:38:24;98509.91;;;21.49;65.50
9187;BME280;7273;48.902;9.410;2023-05-02T11:40:57;98511.72;;;20.95;63.73
9187;BME280;7273;48.902;9.410;2023-05-02T11:43:25;98514.31;;;20.63;64.90
9187;BME280;7273;48.902;9.410;2023-05-02T11:45:55;98507.53;;;20.31;65.27
9187;BME280;7273;48.902;9.410;2023-05-02T11:48:22;98508.31;;;20.32;65.28
9187;BME280;7273;48.902;9.410;2023-05-02T11:50:55;98504.63;;;20.19;64.50
9187;BME280;7273;48.902;9.410;2023-05-02T11:53:24;98502.44;;;20.42;63.39
9187;BME280;7273;48.902;9.410;2023-05-02T11:55:55;98504.66;;;20.86;63.06
9187;BME280;7273;48.902;9.410;2023-05-02T11:58:24;98509.31;;;20.65;63.55
9187;BME280;7273;48.902;9.410;2023-05-02T12:00:51;98501.06;;;20.65;64.00
9187;BME280;7273;48.902;9.410;2023-05-02T12:05:49;98501.91;;;20.86;63.61
9187;BME280;7273;48.902;9.410;2023-05-02T12:08:27;98507.00;;;20.75;61.89
9187;BME280;7273;48.902;9.410;2023-05-02T12:10:55;98508.56;;;20.85;62.36
9187;BME280;7273;48.902;9.410;2023-05-02T12:13:25;98514.31;;;20.92;61.85
9187;BME280;7273;48.902;9.410;2023-05-02T12:15:51;98512.34;;;20.72;62.54
9187;BME280;7273;48.902;9.410;2023-05-02T12:18:18;98511.41;;;20.22;62.47
9187;BME280;7273;48.902;9.410;2023-05-02T12:20:48;98508.72;;;19.87;63.01
9187;BME280;7273;48.902;9.410;2023-05-02T12:23:14;98517.81;;;19.62;63.05
9187;BME280;7273;48.902;9.410;2023-05-02T12:25:40;98526.63;;;19.25;63.47
9187;BME280;7273;48.902;9.410;2023-05-02T12:28:06;98519.69;;;19.11;63.11
9187;BME280;7273;48.902;9.410;2023-05-02T12:30:32;98526.22;;;18.84;63.12
9187;BME280;7273;48.902;9.410;2023-05-02T12:33:00;98525.53;;;18.70;62.86
9187;BME280;7273;48.902;9.410;2023-05-02T12:35:26;98529.94;;;18.40;63.22
9187;BME280;7273;48.902;9.410;2023-05-02T12:37:52;98540.31;;;18.21;63.33
9187;BME280;7273;48.902;9.410;2023-05-02T12:40:21;98539.13;;;18.14;63.40
9187;BME280;7273;48.902;9.410;2023-05-02T12:43:03;98544.56;;;17.83;63.40
9187;BME280;7273;48.902;9.410;2023-05-02T12:45:29;98545.50;;;17.79;64.04
9187;BME280;7273;48.902;9.410;2023-05-02T12:48:21;98542.00;;;17.65;64.44
9187;BME280;7273;48.902;9.410;2023-05-02T12:50:47;98541.78;;;17.39;64.37
9187;BME280;7273;48.902;9.410;2023-05-02T12:53:13;98545.47;;;17.21;64.59
9187;BME280;7273;48.902;9.410;2023-05-02T12:55:38;98551.44;;;17.23;64.92
9187;BME280;7273;48.902;9.410;2023-05-02T12:58:07;98556.22;;;17.04;64.68
9187;BME280;7273;48.902;9.410;2023-05-02T13:00:38;98554.13;;;16.87;64.68
9187;BME280;7273;48.902;9.410;2023-05-02T13:03:05;98556.06;;;16.87;64.92
9187;BME280;7273;48.902;9.410;2023-05-02T13:05:31;98564.88;;;16.84;64.63
9187;BME280;7273;48.902;9.410;2023-05-02T13:07:56;98558.97;;;16.77;64.79
9187;BME280;7273;48.902;9.410;2023-05-02T13:10:23;98558.97;;;16.63;64.53
9187;BME280;7273;48.902;9.410;2023-05-02T13:12:50;98553.13;;;16.70;64.71
9187;BME280;7273;48.902;9.410;2023-05-02T13:15:16;98547.53;;;16.75;64.65
9187;BME280;7273;48.902;9.410;2023-05-02T13:17:41;98556.34;;;16.85;64.45
9187;BME280;7273;48.902;9.410;2023-05-02T13:20:07;98554.31;;;16.91;64.24
9187;BME280;7273;48.902;9.410;2023-05-02T13:22:34;98546.94;;;16.91;63.98
9187;BME280;7273;48.902;9.410;2023-05-02T13:25:01;98543.09;;;16.92;63.57
9187;BME280;7273;48.902;9.410;2023-05-02T13:27:27;98546.22;;;16.99;63.55
9187;BME280;7273;48.902;9.410;2023-05-02T13:29:52;98538.00;;;16.99;63.44
9187;BME280;7273;48.902;9.410;2023-05-02T13:32:17;98538.72;;;17.05;63.32
9187;BME280;7273;48.902;9.410;2023-05-02T13:34:43;98541.66;;;17.08;63.29
9187;BME280;7273;48.902;9.410;2023-05-02T13:37:09;98530.91;;;17.12;63.34
9187;BME280;7273;48.902;9.410;2023-05-02T13:39:35;98534.13;;;17.14;63.23
9187;BME280;7273;48.902;9.410;2023-05-02T13:42:01;98526.94;;;17.18;63.17
9187;BME280;7273;48.902;9.410;2023-05-02T13:44:27;98529.38;;;17.19;63.02
9187;BME280;7273;48.902;9.410;2023-05-02T13:46:53;98534.44;;;17.12;62.75
9187;BME280;7273;48.902;9.410;2023-05-02T13:49:18;98527.75;;;17.18;62.61
9187;BME280;7273;48.902;9.410;2023-05-02T13:51:44;98537.66;;;17.28;62.49
9187;BME280;7273;48.902;9.410;2023-05-02T13:54:09;98524.66;;;17.33;62.14
9187;BME280;7273;48.902;9.410;2023-05-02T13:56:35;98531.25;;;17.46;61.82
9187;BME280;7273;48.902;9.410;2023-05-02T13:59:01;98524.84;;;17.51;61.80
9187;BME280;7273;48.902;9.410;2023-05-02T14:01:26;98522.19;;;17.59;61.64
9187;BME280;7273;48.902;9.410;2023-05-02T14:03:52;98522.97;;;17.60;61.94